Time;durP1;ratioP1;P1;durP2;ratioP2;P2;SDS_P1;SDS_P2;PMS_P1;PMS_P2;Temp;Humidity;BMP_temperature;BMP_pressure;BME280_temperature;BME280_humidity;BME280_pressure;Samples;Min_cycle;Max_cycle;Signal;HPM_P1;HPM_P2
2021/10/29 00:01:59;;;;;;;54.72;32.55;;;;;;;;;;5017961;28;20057;-85
2021/10/29 00:04:25;;;;;;;51.22;31.95;;;;;;;;;;5018039;28;20040;-84
2021/10/29 00:06:51;;;;;;;51.50;31.25;;;;;;;;;;5017904;28;20018;-84
2021/10/29 00:09:17;;;;;;;49.88;32.15;;;;;;;;;;5018167;28;20109;-85
2021/10/29 00:11:43;;;;;;;52.33;32.47;;;;;;;;;;5000173;28;20037;-84
2021/10/29 00:14:09;;;;;;;50.00;31.60;;;;;;;;;;5017884;28;20098;-84
2021/10/29 00:16:35;;;;;;;49.83;30.92;;;;;;;;;;5017453;28;20112;-84
2021/10/29 00:19:01;;;;;;;53.47;32.28;;;;;;;;;;5000192;28;20030;-84
2021/10/29 00:21:27;;;;;;;54.03;31.52;;;;;;;;;;5018015;28;20049;-85
2021/10/29 00:23:56;;;;;;;53.28;30.08;;;;;;;;;;5017965;28;20014;-85
2021/10/29 00:26:22;;;;;;;52.65;31.17;;;;;;;;;;5017888;28;20116;-85
2021/10/29 00:28:48;;;;;;;52.10;30.90;;;;;;;;;;5017791;28;20025;-85
2021/10/29 00:31:14;;;;;;;52.88;32.20;;;;;;;;;;5017809;28;20022;-85
2021/10/29 00:33:40;;;;;;;51.50;31.02;;;;;;;;;;5000127;28;20140;-85
2021/10/29 00:36:06;;;;;;;46.03;29.35;;;;;;;;;;4999697;28;20042;-85
2021/10/29 00:38:32;;;;;;;49.47;31.13;;;;;;;;;;5017755;28;20030;-84
2021/10/29 00:40:59;;;;;;;54.20;30.58;;;;;;;;;;5017751;28;20113;-84
2021/10/29 00:43:25;;;;;;;46.20;29.85;;;;;;;;;;4999871;28;20045;-85
2021/10/29 00:45:51;;;;;;;47.58;29.98;;;;;;;;;;5017388;28;20041;-84
2021/10/29 00:48:17;;;;;;;44.60;28.40;;;;;;;;;;4999871;28;20041;-84
2021/10/29 00:50:44;;;;;;;42.97;28.30;;;;;;;;;;5017310;28;20025;-82
2021/10/29 00:53:10;;;;;;;46.33;28.45;;;;;;;;;;5000117;28;20061;-83
2021/10/29 00:55:36;;;;;;;49.90;29.25;;;;;;;;;;5017548;28;20033;-85
2021/10/29 00:58:02;;;;;;;50.88;29.08;;;;;;;;;;5017557;28;20030;-85
2021/10/29 01:00:29;;;;;;;42.83;28.20;;;;;;;;;;5017077;28;20061;-84
2021/10/29 01:02:55;;;;;;;52.83;30.05;;;;;;;;;;5017597;28;20050;-84
2021/10/29 01:05:21;;;;;;;48.25;30.45;;;;;;;;;;5003822;28;20025;-84
2021/10/29 01:07:47;;;;;;;53.35;30.38;;;;;;;;;;5021493;28;20145;-85
2021/10/29 01:10:13;;;;;;;43.78;28.63;;;;;;;;;;5004032;28;20404;-83
2021/10/29 01:12:39;;;;;;;51.33;30.42;;;;;;;;;;5003497;28;20033;-84
2021/10/29 01:15:06;;;;;;;46.78;29.08;;;;;;;;;;5021056;28;20113;-83
2021/10/29 01:17:32;;;;;;;48.25;28.55;;;;;;;;;;5003435;28;20064;-84
2021/10/29 01:19:58;;;;;;;47.20;28.42;;;;;;;;;;5020907;28;20032;-83
2021/10/29 01:22:25;;;;;;;47.30;29.25;;;;;;;;;;5003702;28;20034;-83
2021/10/29 01:24:51;;;;;;;48.53;28.60;;;;;;;;;;5020996;28;20052;-83
2021/10/29 01:27:18;;;;;;;45.88;28.48;;;;;;;;;;5003656;28;20056;-83
2021/10/29 01:29:46;;;;;;;51.17;29.00;;;;;;;;;;5021250;28;20114;-85
2021/10/29 01:32:12;;;;;;;44.75;28.40;;;;;;;;;;5020855;28;20069;-86
2021/10/29 01:34:41;;;;;;;53.88;30.60;;;;;;;;;;5020950;28;20294;-85
2021/10/29 01:37:08;;;;;;;45.90;28.25;;;;;;;;;;5003633;28;20026;-85
2021/10/29 01:39:35;;;;;;;49.75;29.88;;;;;;;;;;5003207;28;20497;-85
2021/10/29 01:42:01;;;;;;;55.92;30.88;;;;;;;;;;5003412;28;20067;-85
2021/10/29 01:44:27;;;;;;;47.75;29.40;;;;;;;;;;5020472;28;20050;-85
2021/10/29 01:46:53;;;;;;;47.28;29.45;;;;;;;;;;5003502;28;20022;-85
2021/10/29 01:49:19;;;;;;;46.85;27.17;;;;;;;;;;5020901;28;20018;-86
2021/10/29 01:51:45;;;;;;;53.72;30.48;;;;;;;;;;5020807;28;20049;-84
2021/10/29 01:54:12;;;;;;;49.65;29.10;;;;;;;;;;5020471;28;20045;-82
2021/10/29 01:56:38;;;;;;;46.03;29.20;;;;;;;;;;5020486;28;20033;-85
2021/10/29 01:59:04;;;;;;;49.15;29.40;;;;;;;;;;5003476;28;20026;-86
2021/10/29 02:01:31;;;;;;;50.55;29.63;;;;;;;;;;5003244;28;20025;-87
2021/10/29 02:03:57;;;;;;;51.17;30.02;;;;;;;;;;5020392;28;20050;-85
2021/10/29 02:06:23;;;;;;;51.85;28.55;;;;;;;;;;5003018;28;20036;-85
2021/10/29 02:08:49;;;;;;;49.90;29.58;;;;;;;;;;5003041;28;20519;-85
2021/10/29 02:11:16;;;;;;;44.88;28.50;;;;;;;;;;5002897;28;20298;-85
2021/10/29 02:13:42;;;;;;;44.10;27.83;;;;;;;;;;5002553;28;20045;-85
2021/10/29 02:16:08;;;;;;;45.47;28.48;;;;;;;;;;5019556;28;20357;-83
2021/10/29 02:18:35;;;;;;;46.90;27.42;;;;;;;;;;5002736;28;20034;-85
2021/10/29 02:21:01;;;;;;;48.03;29.23;;;;;;;;;;5020304;28;20409;-85
2021/10/29 02:23:27;;;;;;;48.78;29.95;;;;;;;;;;5002792;28;20030;-84
2021/10/29 02:25:53;;;;;;;49.50;30.83;;;;;;;;;;5020110;28;20022;-85
2021/10/29 02:28:22;;;;;;;56.42;29.85;;;;;;;;;;5020062;28;20098;-84
2021/10/29 02:30:49;;;;;;;48.45;29.13;;;;;;;;;;5019927;28;20049;-85
2021/10/29 02:33:16;;;;;;;46.72;29.30;;;;;;;;;;5019582;28;20104;-85
2021/10/29 02:35:43;;;;;;;51.95;30.33;;;;;;;;;;5002396;28;20112;-84
2021/10/29 02:38:09;;;;;;;50.72;30.75;;;;;;;;;;5019511;28;20420;-84
2021/10/29 02:40:35;;;;;;;47.88;31.48;;;;;;;;;;5002387;28;20072;-85
2021/10/29 02:43:02;;;;;;;51.88;31.83;;;;;;;;;;5019529;28;20126;-85
2021/10/29 02:45:28;;;;;;;53.35;31.55;;;;;;;;;;5019426;28;20041;-85
2021/10/29 02:47:54;;;;;;;46.58;30.90;;;;;;;;;;5019586;28;20026;-85
2021/10/29 02:50:20;;;;;;;49.47;30.85;;;;;;;;;;5019560;28;20105;-86
2021/10/29 02:52:47;;;;;;;46.80;29.90;;;;;;;;;;5019923;28;20026;-86
2021/10/29 02:55:14;;;;;;;49.22;30.85;;;;;;;;;;5019621;28;20435;-90
2021/10/29 02:57:41;;;;;;;52.97;31.90;;;;;;;;;;5019734;28;20045;-86
2021/10/29 03:00:08;;;;;;;54.97;31.00;;;;;;;;;;5019506;28;20034;-87
2021/10/29 03:02:34;;;;;;;50.00;30.92;;;;;;;;;;5019437;28;20032;-87
2021/10/29 03:05:01;;;;;;;52.90;30.60;;;;;;;;;;5019374;28;20033;-85
2021/10/29 03:07:27;;;;;;;52.60;31.33;;;;;;;;;;5002044;28;20412;-85
2021/10/29 03:09:54;;;;;;;52.28;31.60;;;;;;;;;;5001602;28;20030;-85
2021/10/29 03:12:20;;;;;;;53.22;31.88;;;;;;;;;;5019134;28;20029;-84
2021/10/29 03:14:46;;;;;;;53.70;31.25;;;;;;;;;;5019022;28;20029;-85
2021/10/29 03:17:12;;;;;;;55.95;30.52;;;;;;;;;;5019071;28;20032;-86
2021/10/29 03:19:38;;;;;;;46.10;30.30;;;;;;;;;;5019296;28;20022;-86
2021/10/29 03:22:05;;;;;;;50.97;31.63;;;;;;;;;;5019198;28;20097;-85
2021/10/29 03:24:31;;;;;;;51.70;31.98;;;;;;;;;;5018894;28;20034;-84
2021/10/29 03:26:57;;;;;;;47.53;30.83;;;;;;;;;;5017964;28;20116;-84
2021/10/29 03:29:24;;;;;;;48.47;31.30;;;;;;;;;;5001325;28;20029;-84
2021/10/29 03:31:50;;;;;;;49.38;31.92;;;;;;;;;;5018857;28;20077;-84
2021/10/29 03:34:16;;;;;;;47.55;30.20;;;;;;;;;;5000939;28;20424;-84
2021/10/29 03:36:42;;;;;;;44.05;30.23;;;;;;;;;;5001425;28;20034;-85
2021/10/29 03:41:58;;;;;;;43.90;29.33;;;;;;;;;;5018525;28;20049;-86
2021/10/29 03:46:51;;;;;;;48.13;31.15;;;;;;;;;;5018598;28;20033;-86
2021/10/29 03:49:40;;;;;;;48.03;30.48;;;;;;;;;;5018550;28;20049;-84
2021/10/29 03:52:21;;;;;;;46.67;29.10;;;;;;;;;;5028860;28;20036;-85
2021/10/29 03:54:52;;;;;;;48.37;30.23;;;;;;;;;;5037250;28;20104;-85
2021/10/29 03:59:47;;;;;;;44.67;29.08;;;;;;;;;;5038338;28;20123;-85
2021/10/29 04:02:13;;;;;;;44.72;28.40;;;;;;;;;;5020533;28;20332;-84
2021/10/29 04:04:58;;;;;;;48.50;30.02;;;;;;;;;;5037794;28;20021;-84
2021/10/29 04:07:24;;;;;;;50.08;34.83;;;;;;;;;;5020277;28;20028;-86
2021/10/29 04:09:50;;;;;;;56.80;38.33;;;;;;;;;;5037926;28;20029;-86
2021/10/29 04:12:17;;;;;;;68.40;44.72;;;;;;;;;;5020519;28;20286;-86
2021/10/29 04:14:43;;;;;;;74.10;49.97;;;;;;;;;;5038046;28;20034;-85
2021/10/29 04:17:09;;;;;;;67.63;43.25;;;;;;;;;;5037874;28;20117;-86
2021/10/29 04:19:36;;;;;;;74.30;48.80;;;;;;;;;;5037625;28;20124;-86
2021/10/29 04:22:02;;;;;;;59.22;37.35;;;;;;;;;;5020165;28;20108;-83
2021/10/29 04:24:28;;;;;;;56.83;33.97;;;;;;;;;;5036704;28;20033;-84
2021/10/29 04:26:58;;;;;;;53.75;33.50;;;;;;;;;;5036821;28;20032;-83
2021/10/29 04:29:34;;;;;;;48.90;31.55;;;;;;;;;;5019216;28;20041;-84
2021/10/29 04:32:00;;;;;;;46.90;28.42;;;;;;;;;;5037304;28;20013;-83
2021/10/29 04:34:27;;;;;;;45.50;27.95;;;;;;;;;;5037431;28;20029;-83
2021/10/29 04:36:54;;;;;;;45.78;28.90;;;;;;;;;;5019249;28;20168;-84
2021/10/29 04:39:20;;;;;;;44.35;28.85;;;;;;;;;;5019619;28;20029;-84
2021/10/29 04:41:50;;;;;;;51.97;29.83;;;;;;;;;;5036508;28;20116;-84
2021/10/29 04:44:16;;;;;;;50.92;32.17;;;;;;;;;;5019592;28;20086;-84
2021/10/29 04:46:43;;;;;;;60.05;35.22;;;;;;;;;;5019618;28;20029;-83
2021/10/29 04:52:13;;;;;;;83.13;44.17;;;;;;;;;;5037618;28;20029;-86
2021/10/29 04:57:55;;;;;;;66.85;37.28;;;;;;;;;;4918974;28;20043;-83
2021/10/29 05:00:23;;;;;;;83.10;42.33;;;;;;;;;;4919016;29;20328;-84
2021/10/29 05:02:49;;;;;;;131.65;58.63;;;;;;;;;;4918982;29;20364;-84
2021/10/29 05:05:15;;;;;;;128.77;54.90;;;;;;;;;;4918931;29;20331;-83
2021/10/29 05:07:41;;;;;;;80.20;42.17;;;;;;;;;;4918537;29;20028;-84
2021/10/29 05:10:08;;;;;;;70.32;37.83;;;;;;;;;;4919000;29;20103;-84
2021/10/29 05:12:34;;;;;;;59.42;33.65;;;;;;;;;;4898483;29;20043;-84
2021/10/29 05:15:00;;;;;;;48.90;32.05;;;;;;;;;;4884595;29;20108;-84
2021/10/29 05:17:26;;;;;;;51.13;31.08;;;;;;;;;;4900072;29;20520;-87
2021/10/29 05:19:52;;;;;;;50.17;31.10;;;;;;;;;;4900239;29;20035;-87
2021/10/29 05:22:18;;;;;;;47.53;29.15;;;;;;;;;;4918781;29;20042;-85
2021/10/29 05:24:44;;;;;;;73.00;41.83;;;;;;;;;;4903303;29;20068;-85
2021/10/29 05:27:11;;;;;;;72.43;38.00;;;;;;;;;;4903253;29;20047;-85
2021/10/29 05:29:37;;;;;;;60.85;36.33;;;;;;;;;;4902881;29;20032;-85
2021/10/29 05:32:03;;;;;;;56.53;35.28;;;;;;;;;;4918842;29;20327;-83
2021/10/29 05:34:48;;;;;;;61.88;35.97;;;;;;;;;;4979396;28;20033;-84
2021/10/29 05:37:14;;;;;;;55.35;33.55;;;;;;;;;;5035944;28;20354;-82
2021/10/29 05:39:40;;;;;;;57.63;36.30;;;;;;;;;;5043167;28;20407;-87
2021/10/29 05:42:06;;;;;;;71.47;38.50;;;;;;;;;;5028780;28;20029;-87
2021/10/29 05:44:32;;;;;;;73.13;37.17;;;;;;;;;;5040670;28;20316;-85
2021/10/29 05:46:58;;;;;;;66.10;36.53;;;;;;;;;;5036586;28;20028;-83
2021/10/29 05:49:25;;;;;;;70.63;36.08;;;;;;;;;;5036701;28;20026;-84
2021/10/29 05:51:52;;;;;;;64.30;35.05;;;;;;;;;;5039423;28;20443;-84
2021/10/29 05:56:58;;;;;;;58.05;34.00;;;;;;;;;;5033245;28;20037;-86
2021/10/29 05:59:24;;;;;;;56.50;32.35;;;;;;;;;;5040131;28;20141;-86
2021/10/29 06:01:50;;;;;;;52.85;31.58;;;;;;;;;;5015455;28;20109;-85
2021/10/29 06:04:35;;;;;;;54.50;32.67;;;;;;;;;;5011903;28;20057;-86
2021/10/29 06:07:01;;;;;;;54.65;30.98;;;;;;;;;;5024310;28;20030;-80
2021/10/29 06:09:27;;;;;;;52.17;30.48;;;;;;;;;;5032861;28;20030;-80
2021/10/29 06:11:53;;;;;;;49.22;28.60;;;;;;;;;;5022393;28;20025;-80
2021/10/29 06:14:19;;;;;;;45.95;27.63;;;;;;;;;;5039341;28;20037;-81
2021/10/29 06:16:46;;;;;;;53.22;29.17;;;;;;;;;;5039553;28;20017;-80
2021/10/29 06:19:12;;;;;;;44.58;26.67;;;;;;;;;;5006823;28;20033;-80
2021/10/29 06:24:24;;;;;;;47.65;25.27;;;;;;;;;;5022789;28;20043;-80
2021/10/29 06:27:00;;;;;;;46.85;27.55;;;;;;;;;;5003550;28;20022;-84
2021/10/29 06:29:26;;;;;;;100.15;46.10;;;;;;;;;;5019909;28;20045;-84
2021/10/29 06:31:53;;;;;;;96.85;48.55;;;;;;;;;;5019972;28;20026;-85
2021/10/29 06:34:20;;;;;;;63.25;34.70;;;;;;;;;;5002045;28;20025;-85
2021/10/29 06:36:47;;;;;;;60.42;34.05;;;;;;;;;;5020063;28;20050;-85
2021/10/29 06:39:13;;;;;;;50.17;30.63;;;;;;;;;;5002348;28;20064;-85
2021/10/29 06:41:39;;;;;;;48.67;27.67;;;;;;;;;;5019719;28;20026;-84
2021/10/29 06:44:27;;;;;;;40.25;26.50;;;;;;;;;;5019330;28;20038;-75
2021/10/29 06:52:24;;;;;;;42.28;24.50;;;;;;;;;;5019123;28;20496;-75
2021/10/29 07:39:57;;;;;;;39.70;23.25;;;;;;;;;;5018821;28;20471;-74
2021/10/29 08:06:52;;;;;;;26.50;18.52;;;;;;;;;;5010540;28;20057;-75
2021/10/29 08:09:19;;;;;;;43.83;19.73;;;;;;;;;;5017928;28;20026;-75
2021/10/29 08:11:45;;;;;;;32.63;20.92;;;;;;;;;;5017506;28;20301;-74
2021/10/29 08:14:11;;;;;;;22.35;15.45;;;;;;;;;;5017154;28;20022;-75
2021/10/29 08:16:37;;;;;;;22.42;15.27;;;;;;;;;;5017746;28;20161;-75
2021/10/29 08:19:03;;;;;;;24.48;15.85;;;;;;;;;;5017564;28;20018;-75
2021/10/29 08:21:30;;;;;;;28.50;16.90;;;;;;;;;;5017537;28;20018;-75
2021/10/29 08:23:56;;;;;;;25.40;17.23;;;;;;;;;;5017500;28;20025;-75
2021/10/29 08:26:22;;;;;;;25.85;15.68;;;;;;;;;;5017354;28;20068;-75
2021/10/29 08:29:11;;;;;;;24.90;16.20;;;;;;;;;;5017478;28;20034;-75
2021/10/29 08:34:46;;;;;;;24.20;13.63;;;;;;;;;;4844287;29;20067;-75
2021/10/29 08:37:12;;;;;;;23.70;12.30;;;;;;;;;;4844480;29;20073;-75
2021/10/29 08:39:39;;;;;;;19.30;13.10;;;;;;;;;;4829230;29;20117;-75
2021/10/29 08:42:06;;;;;;;21.38;13.00;;;;;;;;;;4844400;29;20041;-75
2021/10/29 08:44:32;;;;;;;20.98;14.18;;;;;;;;;;4843838;29;20033;-75
2021/10/29 08:47:01;;;;;;;20.40;12.82;;;;;;;;;;4844263;29;20438;-75
2021/10/29 08:49:28;;;;;;;18.55;12.90;;;;;;;;;;4844185;29;20091;-75
2021/10/29 08:51:54;;;;;;;24.20;13.75;;;;;;;;;;4844297;29;20117;-75
2021/10/29 08:54:20;;;;;;;19.73;13.90;;;;;;;;;;4844235;29;20457;-74
2021/10/29 08:56:46;;;;;;;21.75;13.23;;;;;;;;;;4844115;29;20049;-75
2021/10/29 08:59:18;;;;;;;22.27;12.70;;;;;;;;;;4844122;29;20049;-75
2021/10/29 09:01:55;;;;;;;22.70;13.13;;;;;;;;;;4844279;29;20049;-75
2021/10/29 09:04:35;;;;;;;21.52;14.15;;;;;;;;;;4844248;29;20049;-75
2021/10/29 09:35:54;;;;;;;22.05;13.77;;;;;;;;;;4865745;29;20037;-74
2021/10/29 09:38:25;;;;;;;21.40;13.43;;;;;;;;;;4866041;29;20041;-74
2021/10/29 09:41:01;;;;;;;25.17;14.18;;;;;;;;;;4865770;29;20045;-74
2021/10/29 09:43:31;;;;;;;27.08;14.50;;;;;;;;;;4865790;29;20066;-75
2021/10/29 09:46:00;;;;;;;23.10;12.13;;;;;;;;;;4850269;29;20052;-75
2021/10/29 09:48:35;;;;;;;21.98;11.55;;;;;;;;;;4865691;29;20313;-75
2021/10/29 09:51:06;;;;;;;17.65;11.00;;;;;;;;;;4865688;29;20026;-74
2021/10/29 09:53:59;;;;;;;18.30;11.45;;;;;;;;;;4865617;29;20166;-75
2021/10/29 09:58:57;;;;;;;18.83;10.85;;;;;;;;;;4865548;29;20413;-74
2021/10/29 10:01:24;;;;;;;13.68;10.07;;;;;;;;;;4865435;29;20058;-74
2021/10/29 10:03:51;;;;;;;21.38;11.90;;;;;;;;;;4865587;29;20127;-75
2021/10/29 10:06:19;;;;;;;21.90;11.32;;;;;;;;;;4865351;29;20045;-75
2021/10/29 10:08:45;;;;;;;22.67;12.32;;;;;;;;;;4865286;29;20066;-75
2021/10/29 10:11:12;;;;;;;17.75;10.02;;;;;;;;;;4866307;29;20321;-75
2021/10/29 10:13:40;;;;;;;15.00;9.88;;;;;;;;;;4977833;28;20030;-75
2021/10/29 10:16:06;;;;;;;14.43;9.15;;;;;;;;;;5000313;28;20039;-74
2021/10/29 10:18:33;;;;;;;19.13;8.95;;;;;;;;;;5000215;28;20030;-74
2021/10/29 10:21:01;;;;;;;21.20;10.88;;;;;;;;;;5000193;28;20029;-75
2021/10/29 10:23:34;;;;;;;16.52;9.20;;;;;;;;;;5000035;28;20037;-74
2021/10/29 10:26:17;;;;;;;20.02;9.05;;;;;;;;;;4999867;28;20067;-75
2021/10/29 10:46:05;;;;;;;19.23;9.73;;;;;;;;;;4883158;29;20043;-75
2021/10/29 10:48:34;;;;;;;20.92;11.60;;;;;;;;;;4883196;29;20058;-75
2021/10/29 10:51:21;;;;;;;21.13;10.00;;;;;;;;;;4883197;29;20064;-75
2021/10/29 10:53:57;;;;;;;15.65;8.80;;;;;;;;;;4883294;29;20029;-75
2021/10/29 11:04:41;;;;;;;13.10;7.88;;;;;;;;;;4882937;29;20052;-75
2021/10/29 11:12:41;;;;;;;15.15;9.75;;;;;;;;;;4958700;29;20030;-75
2021/10/29 11:15:09;;;;;;;15.05;8.85;;;;;;;;;;4958496;29;20023;-75
2021/10/29 11:17:50;;;;;;;15.73;9.30;;;;;;;;;;4958528;29;20102;-75
2021/10/29 11:20:35;;;;;;;19.10;10.10;;;;;;;;;;4958389;29;20057;-75
2021/10/29 11:23:08;;;;;;;17.33;10.80;;;;;;;;;;4997213;28;20424;-74
2021/10/29 11:25:53;;;;;;;16.50;9.13;;;;;;;;;;5018448;28;20037;-75
2021/10/29 11:28:27;;;;;;;17.02;8.80;;;;;;;;;;5018066;28;20101;-75
2021/10/29 11:30:54;;;;;;;20.55;9.10;;;;;;;;;;5018064;28;20029;-75
2021/10/29 11:33:20;;;;;;;22.80;10.20;;;;;;;;;;5000867;28;20022;-75
2021/10/29 11:36:01;;;;;;;20.63;9.80;;;;;;;;;;5018380;28;20057;-75
2021/10/29 11:38:27;;;;;;;19.10;9.90;;;;;;;;;;5018385;28;20025;-75
2021/10/29 11:40:53;;;;;;;16.83;9.75;;;;;;;;;;5018038;28;20364;-75
2021/10/29 11:43:27;;;;;;;20.52;9.57;;;;;;;;;;5018405;28;20076;-75
2021/10/29 11:45:54;;;;;;;15.07;8.88;;;;;;;;;;5018261;28;20029;-75
2021/10/29 11:48:21;;;;;;;11.98;7.93;;;;;;;;;;5017262;28;20061;-74
2021/10/29 11:50:47;;;;;;;21.02;10.65;;;;;;;;;;5018082;28;20324;-75
2021/10/29 11:53:16;;;;;;;19.40;10.60;;;;;;;;;;5017814;28;20060;-74
2021/10/29 11:55:49;;;;;;;14.85;8.85;;;;;;;;;;5017822;28;20033;-74
2021/10/29 12:09:28;;;;;;;14.13;8.90;;;;;;;;;;5017879;28;20057;-75
2021/10/29 12:11:55;;;;;;;20.30;11.20;;;;;;;;;;5017912;28;20025;-75
2021/10/29 12:14:27;;;;;;;16.67;8.88;;;;;;;;;;5017537;28;20068;-75
2021/10/29 12:16:55;;;;;;;17.25;8.82;;;;;;;;;;5017666;28;20056;-75
2021/10/29 12:19:23;;;;;;;18.95;8.75;;;;;;;;;;5017507;28;20487;-76
2021/10/29 12:21:56;;;;;;;11.63;8.60;;;;;;;;;;5017444;28;20420;-75
2021/10/29 12:24:23;;;;;;;14.55;8.02;;;;;;;;;;5017622;28;20076;-75
2021/10/29 12:26:57;;;;;;;15.20;7.82;;;;;;;;;;5017600;28;20064;-75
2021/10/29 12:29:25;;;;;;;21.17;8.25;;;;;;;;;;5017300;28;20034;-75
2021/10/29 12:52:19;;;;;;;16.27;8.85;;;;;;;;;;4919164;29;20079;-75
2021/10/29 13:03:10;;;;;;;14.85;8.52;;;;;;;;;;4923132;29;20454;-75
2021/10/29 13:05:36;;;;;;;19.48;9.80;;;;;;;;;;4922685;29;20047;-75
2021/10/29 13:08:21;;;;;;;22.00;9.73;;;;;;;;;;4922709;29;20073;-74
2021/10/29 13:10:50;;;;;;;14.95;9.25;;;;;;;;;;4925489;29;20320;-75
2021/10/29 13:13:25;;;;;;;14.45;7.78;;;;;;;;;;4941514;29;20032;-74
2021/10/29 13:15:56;;;;;;;15.98;9.15;;;;;;;;;;4971573;28;20092;-75
2021/10/29 13:18:26;;;;;;;17.87;8.53;;;;;;;;;;5003241;28;20045;-75
2021/10/29 13:28:57;;;;;;;18.10;10.55;;;;;;;;;;5020841;28;20408;-74
2021/10/29 13:36:52;;;;;;;13.75;9.60;;;;;;;;;;5020593;28;20080;-75
2021/10/29 14:24:23;;;;;;;15.52;7.95;;;;;;;;;;5020383;28;20068;-83
2021/10/29 14:33:14;;;;;;;;;;;;;;;;;;5020155;28;20026;-84
2021/10/29 14:35:45;;;;;;;14.15;7.97;;;;;;;;;;5019989;28;19905;-83
2021/10/29 14:38:38;;;;;;;11.97;7.27;;;;;;;;;;5002643;28;20385;-83
2021/10/29 14:41:09;;;;;;;16.67;8.05;;;;;;;;;;5019752;28;20263;-83
2021/10/29 14:48:56;;;;;;;15.30;10.20;;;;;;;;;;5019717;28;20049;-83
2021/10/29 15:44:56;;;;;;;91.65;43.15;;;;;;;;;;4939167;29;20074;-84
2021/10/29 15:47:44;;;;;;;82.55;37.38;;;;;;;;;;4939031;29;20038;-84
2021/10/29 15:50:13;;;;;;;50.95;24.45;;;;;;;;;;4939114;29;20047;-84
2021/10/29 15:52:40;;;;;;;40.60;19.92;;;;;;;;;;4939115;29;20028;-83
2021/10/29 15:55:10;;;;;;;34.65;17.13;;;;;;;;;;4954867;29;20163;-84
2021/10/29 15:57:47;;;;;;;37.08;18.92;;;;;;;;;;4958088;29;20035;-83
2021/10/29 16:00:35;;;;;;;35.83;18.10;;;;;;;;;;4941742;29;20051;-84
2021/10/29 16:03:11;;;;;;;30.40;16.20;;;;;;;;;;4986817;28;20030;-84
2021/10/29 16:17:09;;;;;;;23.67;13.80;;;;;;;;;;4957852;29;20429;-83
2021/10/29 16:19:35;;;;;;;33.17;20.85;;;;;;;;;;4976507;28;20373;-82
2021/10/29 16:22:05;;;;;;;25.25;14.70;;;;;;;;;;4976958;28;20038;-83
2021/10/29 16:24:32;;;;;;;22.27;15.25;;;;;;;;;;4976665;28;20031;-82
2021/10/29 16:26:58;;;;;;;16.92;11.75;;;;;;;;;;4976846;28;20035;-81
2021/10/29 16:29:25;;;;;;;24.20;12.00;;;;;;;;;;4976673;28;20039;-82
2021/10/29 16:31:55;;;;;;;18.40;12.20;;;;;;;;;;4976813;28;20375;-82
2021/10/29 16:34:21;;;;;;;20.30;12.20;;;;;;;;;;4976344;28;20027;-83
2021/10/29 16:36:47;;;;;;;23.30;12.75;;;;;;;;;;4976650;28;20413;-83
2021/10/29 16:39:14;;;;;;;28.38;16.80;;;;;;;;;;4976608;28;20051;-82
2021/10/29 16:41:42;;;;;;;24.35;13.93;;;;;;;;;;4976610;28;20038;-83
2021/10/29 16:44:08;;;;;;;27.02;13.95;;;;;;;;;;4976623;28;20035;-82
2021/10/29 16:46:36;;;;;;;24.58;13.48;;;;;;;;;;4978772;28;20085;-82
2021/10/29 16:49:02;;;;;;;23.02;13.70;;;;;;;;;;5017628;28;20105;-82
2021/10/29 16:51:28;;;;;;;22.42;14.23;;;;;;;;;;5017420;28;20030;-83
2021/10/29 16:53:54;;;;;;;29.10;17.83;;;;;;;;;;5017593;28;20312;-83
2021/10/29 16:56:20;;;;;;;35.03;22.08;;;;;;;;;;5017101;28;20022;-82
2021/10/29 16:58:47;;;;;;;32.22;19.38;;;;;;;;;;5017037;28;20363;-82
2021/10/29 17:01:13;;;;;;;29.95;17.58;;;;;;;;;;4999947;28;20427;-83
2021/10/29 17:03:51;;;;;;;22.92;15.65;;;;;;;;;;5017134;28;20034;-82
2021/10/29 17:06:18;;;;;;;30.10;16.38;;;;;;;;;;5017146;28;20037;-83
2021/10/29 17:08:44;;;;;;;27.55;17.48;;;;;;;;;;4999340;28;20046;-82
2021/10/29 17:11:13;;;;;;;43.40;23.40;;;;;;;;;;4999274;28;20037;-82
2021/10/29 17:13:41;;;;;;;35.75;20.10;;;;;;;;;;5017146;28;20034;-83
2021/10/29 17:16:07;;;;;;;30.55;18.45;;;;;;;;;;4999170;28;20465;-82
2021/10/29 17:18:33;;;;;;;30.33;17.30;;;;;;;;;;5017033;28;20105;-82
2021/10/29 17:21:03;;;;;;;42.08;20.98;;;;;;;;;;5017012;28;20022;-82
2021/10/29 17:23:29;;;;;;;40.40;23.17;;;;;;;;;;5016799;28;20026;-81
2021/10/29 17:25:55;;;;;;;47.08;24.02;;;;;;;;;;5016823;28;20033;-81
2021/10/29 17:28:21;;;;;;;43.05;23.95;;;;;;;;;;5015667;28;20050;-80
2021/10/29 17:30:47;;;;;;;43.08;22.75;;;;;;;;;;5015546;28;20037;-80
2021/10/29 17:33:13;;;;;;;37.95;20.98;;;;;;;;;;5017178;28;20018;-81
2021/10/29 17:35:39;;;;;;;51.60;26.08;;;;;;;;;;5016590;28;20030;-81
2021/10/29 17:38:06;;;;;;;65.43;30.65;;;;;;;;;;4999240;28;20432;-80
2021/10/29 17:40:35;;;;;;;56.97;28.67;;;;;;;;;;5016966;28;20026;-80
2021/10/29 17:43:01;;;;;;;47.17;24.85;;;;;;;;;;5016781;28;20468;-81
2021/10/29 17:45:27;;;;;;;52.00;25.02;;;;;;;;;;4999011;28;20128;-81
2021/10/29 17:47:54;;;;;;;42.00;25.58;;;;;;;;;;5001987;28;20094;-81
2021/10/29 17:50:20;;;;;;;38.15;23.23;;;;;;;;;;5020269;28;20022;-81
2021/10/29 17:52:46;;;;;;;34.22;20.58;;;;;;;;;;5020347;28;20026;-81
2021/10/29 17:55:14;;;;;;;35.70;20.25;;;;;;;;;;5020267;28;20030;-81
2021/10/29 17:57:40;;;;;;;27.17;18.10;;;;;;;;;;5020106;28;20034;-81
2021/10/29 18:00:07;;;;;;;32.22;19.05;;;;;;;;;;5020093;28;20440;-81
2021/10/29 18:02:33;;;;;;;31.25;19.52;;;;;;;;;;5002546;28;20060;-81
2021/10/29 18:04:59;;;;;;;35.15;20.63;;;;;;;;;;5019879;28;20054;-81
2021/10/29 18:07:27;;;;;;;29.52;19.38;;;;;;;;;;5002479;28;20129;-81
2021/10/29 18:09:53;;;;;;;35.30;20.23;;;;;;;;;;5020020;28;20026;-81
2021/10/29 18:12:20;;;;;;;38.42;20.40;;;;;;;;;;5020030;28;20025;-81
2021/10/29 18:14:46;;;;;;;35.90;20.30;;;;;;;;;;5019671;28;20025;-81
2021/10/29 18:17:14;;;;;;;36.20;20.15;;;;;;;;;;5020038;28;20026;-81
2021/10/29 18:19:40;;;;;;;32.22;18.95;;;;;;;;;;5019869;28;20427;-81
2021/10/29 18:22:06;;;;;;;37.65;21.92;;;;;;;;;;5019954;28;20025;-81
2021/10/29 18:24:36;;;;;;;41.25;22.52;;;;;;;;;;5002151;28;20070;-81
2021/10/29 18:27:03;;;;;;;35.03;21.25;;;;;;;;;;5019597;28;20030;-81
2021/10/29 18:29:29;;;;;;;38.58;21.02;;;;;;;;;;5019564;28;20080;-81
2021/10/29 18:31:55;;;;;;;35.70;21.42;;;;;;;;;;5002063;28;20302;-81
2021/10/29 18:34:24;;;;;;;42.55;23.05;;;;;;;;;;5019425;28;20405;-81
2021/10/29 18:36:50;;;;;;;39.97;24.92;;;;;;;;;;5019509;28;20030;-81
2021/10/29 18:39:16;;;;;;;35.72;22.45;;;;;;;;;;5019411;28;20105;-81
2021/10/29 18:41:42;;;;;;;31.50;21.67;;;;;;;;;;5019459;28;20412;-81
2021/10/29 18:44:08;;;;;;;37.55;23.38;;;;;;;;;;5019392;28;20404;-81
2021/10/29 18:46:36;;;;;;;40.38;23.42;;;;;;;;;;5019203;28;20021;-81
2021/10/29 18:49:22;;;;;;;36.95;23.83;;;;;;;;;;5019312;28;20025;-81
2021/10/29 18:51:48;;;;;;;41.65;23.30;;;;;;;;;;5019358;28;20350;-80
2021/10/29 18:54:14;;;;;;;37.33;23.65;;;;;;;;;;5019158;28;20056;-80
2021/10/29 18:56:40;;;;;;;44.45;24.33;;;;;;;;;;5001266;28;20034;-81
2021/10/29 18:59:06;;;;;;;50.80;26.58;;;;;;;;;;5018708;28;20053;-81
2021/10/29 19:01:33;;;;;;;72.05;32.47;;;;;;;;;;5019173;28;20032;-80
2021/10/29 19:04:18;;;;;;;69.68;30.13;;;;;;;;;;5018892;28;20131;-81
2021/10/29 19:06:45;;;;;;;56.88;26.95;;;;;;;;;;5018745;28;20068;-81
2021/10/29 19:09:11;;;;;;;53.13;27.35;;;;;;;;;;5001511;28;20025;-80
2021/10/29 19:11:41;;;;;;;57.75;27.23;;;;;;;;;;5001610;28;20068;-80
2021/10/29 19:14:07;;;;;;;48.30;24.65;;;;;;;;;;5018910;28;20029;-81
2021/10/29 19:16:34;;;;;;;43.65;23.25;;;;;;;;;;5018588;28;20109;-81
2021/10/29 19:19:00;;;;;;;42.80;24.63;;;;;;;;;;5001375;28;20436;-83
2021/10/29 19:21:26;;;;;;;41.90;24.88;;;;;;;;;;5019279;28;20101;-85
2021/10/29 19:23:52;;;;;;;38.90;25.30;;;;;;;;;;5019423;28;20030;-85
2021/10/29 19:26:19;;;;;;;38.30;23.20;;;;;;;;;;5018612;28;20459;-88
2021/10/29 19:28:46;;;;;;;35.25;22.33;;;;;;;;;;5019027;28;20026;-89
2021/10/29 19:31:13;;;;;;;33.05;21.52;;;;;;;;;;5001791;28;20029;-88
2021/10/29 19:33:39;;;;;;;34.35;21.10;;;;;;;;;;5019398;28;20022;-90
2021/10/29 19:36:10;;;;;;;36.97;21.30;;;;;;;;;;5018926;28;20036;-88
2021/10/29 19:38:36;;;;;;;46.45;22.73;;;;;;;;;;5019227;28;20092;-89
2021/10/29 19:41:02;;;;;;;40.47;22.58;;;;;;;;;;5019130;28;20034;-92
2021/10/29 19:43:28;;;;;;;40.20;22.70;;;;;;;;;;5001504;28;20029;-94
2021/10/29 19:45:55;;;;;;;40.05;20.90;;;;;;;;;;5018805;28;20030;-92
2021/10/29 19:48:22;;;;;;;31.02;20.25;;;;;;;;;;5037154;28;20360;-92
2021/10/29 19:50:51;;;;;;;36.35;20.67;;;;;;;;;;5021438;28;20022;-92
2021/10/29 19:53:24;;;;;;;32.47;20.65;;;;;;;;;;5001556;28;20113;-90
2021/10/29 19:55:50;;;;;;;46.55;25.35;;;;;;;;;;5018531;28;20026;-91
2021/10/29 19:58:19;;;;;;;101.57;43.47;;;;;;;;;;5017141;28;20040;-90
2021/10/29 20:00:46;;;;;;;93.60;43.22;;;;;;;;;;5020545;28;20048;-92